2CUTH EGLD-EGJB
Flight info
| Callsign | 2CUTH |
|---|---|
| Flight time | 1h 6m |
| Altitude | 8000 |
| Route | HEN N27 ICTAM DCT CPT/N0170F090 Y321 PEPIS/N0168F080 DCT SAM Q41 ORTAC |
| Aircraft | DA62/L-SBDFGRY/S |
Departure
| Time | 2026-04-26 14:32 |
|---|---|
| Airport | Denham Aerodrome (EGLD) |
Arrival
| Time | 2026-04-26 15:38 |
|---|---|
| Airport | Guernsey Airport (EGJB) |
| Time | Latitude | Longitude | Altitude | Speed | Heading |
|---|---|---|---|---|---|
| 2026-04-26 14:25 | 51.59027 | -0.51365 | 246 ft | 0 kts | 51° |
| 2026-04-26 14:29 | 51.59000 | -0.51403 | 247 ft | 12 kts | 238° |
| 2026-04-26 14:30 | 51.58912 | -0.51413 | 247 ft | 19 kts | 128° |
| 2026-04-26 14:30 | 51.58837 | -0.51315 | 247 ft | 11 kts | 235° |
| 2026-04-26 14:30 | 51.58758 | -0.51527 | 248 ft | 26 kts | 240° |
| 2026-04-26 14:30 | 51.58686 | -0.51752 | 252 ft | 17 kts | 259° |
| 2026-04-26 14:31 | 51.58669 | -0.51771 | 251 ft | 0 kts | 58° |
| 2026-04-26 14:31 | 51.58680 | -0.51742 | 252 ft | 20 kts | 57° |
| 2026-04-26 14:31 | 51.58863 | -0.51250 | 246 ft | 79 kts | 60° |
| 2026-04-26 14:32 | 51.59170 | -0.50372 | 417 ft | 100 kts | 63° |
| 2026-04-26 14:32 | 51.59578 | -0.49431 | 770 ft | 106 kts | 34° |
| 2026-04-26 14:32 | 51.60305 | -0.49508 | 1082 ft | 114 kts | 331° |
| 2026-04-26 14:32 | 51.61009 | -0.50159 | 1382 ft | 125 kts | 323° |
| 2026-04-26 14:33 | 51.61759 | -0.51115 | 1397 ft | 144 kts | 322° |
| 2026-04-26 14:33 | 51.62558 | -0.52141 | 1402 ft | 150 kts | 322° |
| 2026-04-26 14:33 | 51.63354 | -0.53277 | 1401 ft | 157 kts | 310° |
| 2026-04-26 14:33 | 51.64038 | -0.54676 | 1397 ft | 158 kts | 308° |
| 2026-04-26 14:34 | 51.64717 | -0.56058 | 1477 ft | 157 kts | 308° |
| 2026-04-26 14:34 | 51.65403 | -0.57467 | 1626 ft | 160 kts | 308° |
| 2026-04-26 14:34 | 51.66100 | -0.58878 | 1785 ft | 162 kts | 308° |
| 2026-04-26 14:34 | 51.66792 | -0.60289 | 1945 ft | 163 kts | 308° |
| 2026-04-26 14:35 | 51.67496 | -0.61719 | 2115 ft | 165 kts | 308° |
| 2026-04-26 14:35 | 51.68207 | -0.63161 | 2272 ft | 163 kts | 308° |
| 2026-04-26 14:35 | 51.68917 | -0.64610 | 2282 ft | 163 kts | 308° |
| 2026-04-26 14:35 | 51.69608 | -0.66024 | 2273 ft | 159 kts | 307° |
| 2026-04-26 14:36 | 51.70295 | -0.67422 | 2314 ft | 155 kts | 308° |
| 2026-04-26 14:36 | 51.70972 | -0.68794 | 2565 ft | 155 kts | 308° |
| 2026-04-26 14:36 | 51.71641 | -0.70162 | 2832 ft | 158 kts | 309° |
| 2026-04-26 14:36 | 51.72331 | -0.71568 | 3070 ft | 159 kts | 307° |
| 2026-04-26 14:37 | 51.73005 | -0.72953 | 3346 ft | 158 kts | 308° |
| 2026-04-26 14:37 | 51.73695 | -0.74358 | 3602 ft | 162 kts | 308° |
| 2026-04-26 14:37 | 51.74394 | -0.75783 | 3844 ft | 161 kts | 307° |
| 2026-04-26 14:37 | 51.75014 | -0.77255 | 4117 ft | 156 kts | 291° |
| 2026-04-26 14:38 | 51.75188 | -0.78931 | 4438 ft | 157 kts | 266° |
| 2026-04-26 14:38 | 51.74878 | -0.80622 | 4726 ft | 159 kts | 238° |
| 2026-04-26 14:38 | 51.74184 | -0.81924 | 5052 ft | 150 kts | 222° |
| 2026-04-26 14:38 | 51.73681 | -0.82732 | 5247 ft | 151 kts | 224° |
| 2026-04-26 14:39 | 51.72698 | -0.84337 | 5635 ft | 150 kts | 224° |
| 2026-04-26 14:39 | 51.71963 | -0.85525 | 5945 ft | 150 kts | 224° |
| 2026-04-26 14:39 | 51.71219 | -0.86727 | 6249 ft | 151 kts | 224° |
| 2026-04-26 14:39 | 51.70473 | -0.87927 | 6551 ft | 150 kts | 224° |
| 2026-04-26 14:40 | 51.69746 | -0.89093 | 6846 ft | 145 kts | 224° |
| 2026-04-26 14:40 | 51.69039 | -0.90228 | 7136 ft | 142 kts | 224° |
| 2026-04-26 14:40 | 51.68347 | -0.91341 | 7428 ft | 139 kts | 224° |
| 2026-04-26 14:40 | 51.67654 | -0.92454 | 7716 ft | 140 kts | 224° |
| 2026-04-26 14:41 | 51.66963 | -0.93557 | 8012 ft | 138 kts | 225° |
| 2026-04-26 14:41 | 51.66286 | -0.94651 | 8280 ft | 142 kts | 225° |
| 2026-04-26 14:41 | 51.65548 | -0.95834 | 8293 ft | 157 kts | 225° |
| 2026-04-26 14:41 | 51.64746 | -0.97113 | 8305 ft | 167 kts | 224° |
| 2026-04-26 14:42 | 51.63927 | -0.98425 | 8294 ft | 168 kts | 224° |
| 2026-04-26 14:42 | 51.63102 | -0.99756 | 8294 ft | 170 kts | 225° |
| 2026-04-26 14:42 | 51.62258 | -1.01102 | 8304 ft | 171 kts | 225° |
| 2026-04-26 14:42 | 51.61408 | -1.02460 | 8293 ft | 172 kts | 225° |
| 2026-04-26 14:43 | 51.60553 | -1.03829 | 8292 ft | 173 kts | 225° |
| 2026-04-26 14:43 | 51.59709 | -1.05177 | 8296 ft | 171 kts | 224° |
| 2026-04-26 14:43 | 51.58860 | -1.06530 | 8307 ft | 173 kts | 225° |
| 2026-04-26 14:43 | 51.58016 | -1.07880 | 8294 ft | 171 kts | 225° |
| 2026-04-26 14:44 | 51.57173 | -1.09223 | 8300 ft | 171 kts | 224° |
| 2026-04-26 14:44 | 51.56330 | -1.10565 | 8302 ft | 170 kts | 225° |
| 2026-04-26 14:44 | 51.55501 | -1.11889 | 8303 ft | 169 kts | 224° |
| 2026-04-26 14:44 | 51.54662 | -1.13223 | 8302 ft | 170 kts | 225° |
| 2026-04-26 14:45 | 51.53821 | -1.14558 | 8297 ft | 171 kts | 225° |
| 2026-04-26 14:45 | 51.53261 | -1.15452 | 8303 ft | 171 kts | 226° |
| 2026-04-26 14:45 | 51.52117 | -1.17262 | 8297 ft | 171 kts | 222° |
| 2026-04-26 14:45 | 51.51273 | -1.18612 | 8297 ft | 172 kts | 226° |
| 2026-04-26 14:46 | 51.50424 | -1.19969 | 8293 ft | 172 kts | 224° |
| 2026-04-26 14:46 | 51.49536 | -1.21259 | 8284 ft | 171 kts | 214° |
| 2026-04-26 14:46 | 51.48458 | -1.21975 | 8286 ft | 171 kts | 192° |
| 2026-04-26 14:46 | 51.47275 | -1.22115 | 8289 ft | 171 kts | 183° |
| 2026-04-26 14:47 | 51.46083 | -1.22220 | 8290 ft | 173 kts | 184° |
| 2026-04-26 14:47 | 51.44879 | -1.22322 | 8286 ft | 174 kts | 184° |
| 2026-04-26 14:47 | 51.43673 | -1.22420 | 8290 ft | 173 kts | 184° |
| 2026-04-26 14:47 | 51.42466 | -1.22515 | 8285 ft | 174 kts | 184° |
| 2026-04-26 14:48 | 51.41265 | -1.22612 | 8286 ft | 172 kts | 184° |
| 2026-04-26 14:48 | 51.40072 | -1.22712 | 8288 ft | 172 kts | 184° |
| 2026-04-26 14:48 | 51.38871 | -1.22811 | 8281 ft | 173 kts | 184° |
| 2026-04-26 14:48 | 51.37681 | -1.22908 | 8295 ft | 172 kts | 184° |
| 2026-04-26 14:49 | 51.36482 | -1.23004 | 8288 ft | 172 kts | 184° |
| 2026-04-26 14:49 | 51.35283 | -1.23108 | 8288 ft | 173 kts | 184° |
| 2026-04-26 14:49 | 51.34076 | -1.23198 | 8282 ft | 173 kts | 184° |
| 2026-04-26 14:49 | 51.32887 | -1.23301 | 8283 ft | 170 kts | 184° |
| 2026-04-26 14:50 | 51.32106 | -1.23360 | 8280 ft | 169 kts | 184° |
| 2026-04-26 14:50 | 51.30922 | -1.23455 | 8281 ft | 170 kts | 184° |
| 2026-04-26 14:50 | 51.29353 | -1.23584 | 8287 ft | 173 kts | 184° |
| 2026-04-26 14:50 | 51.28150 | -1.23679 | 8290 ft | 173 kts | 184° |
| 2026-04-26 14:51 | 51.27349 | -1.23746 | 8290 ft | 174 kts | 184° |
| 2026-04-26 14:51 | 51.26140 | -1.23844 | 8287 ft | 174 kts | 184° |
| 2026-04-26 14:51 | 51.24928 | -1.23943 | 8291 ft | 174 kts | 183° |
| 2026-04-26 14:51 | 51.23720 | -1.24041 | 8296 ft | 173 kts | 184° |
| 2026-04-26 14:52 | 51.22518 | -1.24139 | 8293 ft | 174 kts | 184° |
| 2026-04-26 14:52 | 51.21310 | -1.24236 | 8284 ft | 173 kts | 184° |
| 2026-04-26 14:52 | 51.20114 | -1.24330 | 8294 ft | 173 kts | 184° |
| 2026-04-26 14:52 | 51.18939 | -1.24666 | 8282 ft | 172 kts | 197° |
| 2026-04-26 14:53 | 51.17780 | -1.25175 | 8290 ft | 174 kts | 195° |
| 2026-04-26 14:53 | 51.16622 | -1.25654 | 8294 ft | 173 kts | 195° |
| 2026-04-26 14:53 | 51.15463 | -1.26144 | 8286 ft | 171 kts | 195° |
| 2026-04-26 14:53 | 51.14315 | -1.26620 | 8287 ft | 170 kts | 195° |
| 2026-04-26 14:54 | 51.13176 | -1.27103 | 8287 ft | 169 kts | 195° |
| 2026-04-26 14:54 | 51.12031 | -1.27587 | 8293 ft | 171 kts | 195° |
| 2026-04-26 14:54 | 51.10877 | -1.28071 | 8285 ft | 172 kts | 195° |
| 2026-04-26 14:54 | 51.09717 | -1.28556 | 8295 ft | 173 kts | 195° |
| 2026-04-26 14:55 | 51.08573 | -1.29042 | 8288 ft | 171 kts | 195° |
| 2026-04-26 14:55 | 51.07427 | -1.29528 | 8291 ft | 170 kts | 195° |
| 2026-04-26 14:55 | 51.06278 | -1.29998 | 8286 ft | 171 kts | 195° |
| 2026-04-26 14:55 | 51.05133 | -1.30485 | 8285 ft | 170 kts | 195° |
| 2026-04-26 14:56 | 51.03997 | -1.30960 | 8291 ft | 168 kts | 196° |
| 2026-04-26 14:56 | 51.02861 | -1.31437 | 8295 ft | 171 kts | 195° |
| 2026-04-26 14:56 | 51.01716 | -1.31916 | 8289 ft | 170 kts | 195° |
| 2026-04-26 14:56 | 51.00577 | -1.32392 | 8288 ft | 169 kts | 195° |
| 2026-04-26 14:57 | 50.99436 | -1.32869 | 8294 ft | 170 kts | 195° |
| 2026-04-26 14:57 | 50.98286 | -1.33351 | 8287 ft | 170 kts | 195° |
| 2026-04-26 14:57 | 50.97147 | -1.33828 | 8288 ft | 169 kts | 195° |
| 2026-04-26 14:57 | 50.96012 | -1.34304 | 8288 ft | 169 kts | 195° |
| 2026-04-26 14:58 | 50.94919 | -1.34920 | 8282 ft | 168 kts | 205° |
| 2026-04-26 14:58 | 50.93850 | -1.35687 | 8285 ft | 168 kts | 204° |
| 2026-04-26 14:58 | 50.92786 | -1.36438 | 8288 ft | 167 kts | 204° |
| 2026-04-26 14:58 | 50.91719 | -1.37191 | 8289 ft | 168 kts | 204° |
| 2026-04-26 14:59 | 50.90651 | -1.37941 | 8290 ft | 168 kts | 204° |
| 2026-04-26 14:59 | 50.89581 | -1.38694 | 8288 ft | 168 kts | 204° |
| 2026-04-26 14:59 | 50.88514 | -1.39444 | 8297 ft | 168 kts | 204° |
| 2026-04-26 14:59 | 50.87802 | -1.39946 | 8288 ft | 169 kts | 205° |
| 2026-04-26 15:00 | 50.86362 | -1.40962 | 8296 ft | 171 kts | 204° |
| 2026-04-26 15:00 | 50.85289 | -1.41711 | 8292 ft | 170 kts | 204° |
| 2026-04-26 15:00 | 50.84215 | -1.42467 | 8290 ft | 169 kts | 205° |
| 2026-04-26 15:00 | 50.83131 | -1.43225 | 8290 ft | 171 kts | 205° |
| 2026-04-26 15:01 | 50.82045 | -1.43991 | 8289 ft | 169 kts | 204° |
| 2026-04-26 15:01 | 50.80968 | -1.44745 | 8290 ft | 169 kts | 204° |
| 2026-04-26 15:01 | 50.79896 | -1.45495 | 8288 ft | 168 kts | 204° |
| 2026-04-26 15:01 | 50.78838 | -1.46238 | 8291 ft | 169 kts | 205° |
| 2026-04-26 15:02 | 50.77754 | -1.47000 | 8285 ft | 170 kts | 204° |
| 2026-04-26 15:02 | 50.76674 | -1.47746 | 8283 ft | 169 kts | 204° |
| 2026-04-26 15:02 | 50.75595 | -1.48503 | 8290 ft | 172 kts | 204° |
| 2026-04-26 15:02 | 50.74507 | -1.49267 | 8284 ft | 170 kts | 204° |
| 2026-04-26 15:03 | 50.73433 | -1.50018 | 8283 ft | 168 kts | 204° |
| 2026-04-26 15:03 | 50.72365 | -1.50762 | 8280 ft | 168 kts | 204° |
| 2026-04-26 15:03 | 50.71300 | -1.51506 | 8283 ft | 167 kts | 204° |
| 2026-04-26 15:03 | 50.70235 | -1.52248 | 8283 ft | 168 kts | 204° |
| 2026-04-26 15:04 | 50.69167 | -1.52994 | 8284 ft | 168 kts | 204° |
| 2026-04-26 15:04 | 50.68094 | -1.53739 | 8286 ft | 170 kts | 204° |
| 2026-04-26 15:04 | 50.67012 | -1.54498 | 8282 ft | 170 kts | 204° |
| 2026-04-26 15:04 | 50.65922 | -1.55253 | 8282 ft | 171 kts | 204° |
| 2026-04-26 15:05 | 50.64839 | -1.56006 | 8282 ft | 169 kts | 204° |
| 2026-04-26 15:05 | 50.64127 | -1.56502 | 8285 ft | 168 kts | 204° |
| 2026-04-26 15:05 | 50.62715 | -1.57484 | 8283 ft | 167 kts | 204° |
| 2026-04-26 15:05 | 50.61651 | -1.58223 | 8283 ft | 166 kts | 204° |
| 2026-04-26 15:06 | 50.60591 | -1.58960 | 8280 ft | 166 kts | 204° |
| 2026-04-26 15:06 | 50.59531 | -1.59696 | 8277 ft | 166 kts | 204° |
| 2026-04-26 15:06 | 50.58471 | -1.60431 | 8279 ft | 166 kts | 204° |
| 2026-04-26 15:06 | 50.57410 | -1.61167 | 8281 ft | 166 kts | 204° |
| 2026-04-26 15:07 | 50.55290 | -1.62636 | 8277 ft | 166 kts | 204° |
| 2026-04-26 15:07 | 50.54244 | -1.63361 | 8276 ft | 166 kts | 204° |
| 2026-04-26 15:07 | 50.53185 | -1.64093 | 8273 ft | 166 kts | 204° |
| 2026-04-26 15:08 | 50.52125 | -1.64826 | 8274 ft | 166 kts | 204° |
| 2026-04-26 15:08 | 50.51067 | -1.65559 | 8275 ft | 166 kts | 204° |
| 2026-04-26 15:08 | 50.50008 | -1.66291 | 8272 ft | 166 kts | 204° |
| 2026-04-26 15:08 | 50.48948 | -1.67023 | 8274 ft | 166 kts | 204° |
| 2026-04-26 15:09 | 50.47887 | -1.67754 | 8270 ft | 166 kts | 204° |
| 2026-04-26 15:09 | 50.46827 | -1.68487 | 8270 ft | 166 kts | 204° |
| 2026-04-26 15:09 | 50.45766 | -1.69218 | 8270 ft | 167 kts | 203° |
| 2026-04-26 15:09 | 50.44702 | -1.69952 | 8271 ft | 167 kts | 204° |
| 2026-04-26 15:10 | 50.43638 | -1.70685 | 8266 ft | 167 kts | 203° |
| 2026-04-26 15:10 | 50.42933 | -1.71170 | 8268 ft | 167 kts | 204° |
| 2026-04-26 15:10 | 50.41525 | -1.72140 | 8267 ft | 166 kts | 203° |
| 2026-04-26 15:10 | 50.40465 | -1.72869 | 8267 ft | 166 kts | 203° |
| 2026-04-26 15:11 | 50.39404 | -1.73598 | 8268 ft | 166 kts | 203° |
| 2026-04-26 15:11 | 50.38345 | -1.74326 | 8264 ft | 166 kts | 203° |
| 2026-04-26 15:11 | 50.37287 | -1.75053 | 8265 ft | 166 kts | 203° |
| 2026-04-26 15:11 | 50.36227 | -1.75781 | 8264 ft | 166 kts | 203° |
| 2026-04-26 15:12 | 50.35164 | -1.76511 | 8261 ft | 166 kts | 203° |
| 2026-04-26 15:12 | 50.34104 | -1.77238 | 8266 ft | 166 kts | 203° |
| 2026-04-26 15:12 | 50.33045 | -1.77964 | 8264 ft | 166 kts | 203° |
| 2026-04-26 15:12 | 50.31984 | -1.78691 | 8262 ft | 166 kts | 203° |
| 2026-04-26 15:13 | 50.30925 | -1.79416 | 8263 ft | 166 kts | 203° |
| 2026-04-26 15:13 | 50.29867 | -1.80141 | 8259 ft | 166 kts | 203° |
| 2026-04-26 15:13 | 50.28807 | -1.80866 | 8259 ft | 166 kts | 203° |
| 2026-04-26 15:13 | 50.27750 | -1.81589 | 8260 ft | 166 kts | 203° |
| 2026-04-26 15:14 | 50.26691 | -1.82313 | 8259 ft | 166 kts | 203° |
| 2026-04-26 15:14 | 50.25632 | -1.83036 | 8256 ft | 166 kts | 203° |
| 2026-04-26 15:14 | 50.24584 | -1.83753 | 8255 ft | 166 kts | 203° |
| 2026-04-26 15:14 | 50.23521 | -1.84479 | 8258 ft | 166 kts | 203° |
| 2026-04-26 15:15 | 50.22460 | -1.85202 | 8255 ft | 166 kts | 203° |
| 2026-04-26 15:15 | 50.21400 | -1.85925 | 8259 ft | 166 kts | 203° |
| 2026-04-26 15:15 | 50.20340 | -1.86648 | 8255 ft | 166 kts | 203° |
| 2026-04-26 15:15 | 50.19280 | -1.87370 | 8256 ft | 166 kts | 203° |
| 2026-04-26 15:16 | 50.18222 | -1.88090 | 8257 ft | 166 kts | 203° |
| 2026-04-26 15:16 | 50.17162 | -1.88812 | 8251 ft | 166 kts | 203° |
| 2026-04-26 15:16 | 50.16101 | -1.89533 | 8255 ft | 166 kts | 203° |
| 2026-04-26 15:16 | 50.15056 | -1.90244 | 8250 ft | 166 kts | 203° |
| 2026-04-26 15:17 | 50.13997 | -1.90964 | 8253 ft | 166 kts | 203° |
| 2026-04-26 15:17 | 50.13280 | -1.91451 | 8251 ft | 166 kts | 203° |
| 2026-04-26 15:17 | 50.11873 | -1.92406 | 8253 ft | 166 kts | 203° |
| 2026-04-26 15:17 | 50.10799 | -1.93064 | 8252 ft | 166 kts | 195° |
| 2026-04-26 15:18 | 50.09694 | -1.93580 | 8250 ft | 166 kts | 198° |
| 2026-04-26 15:18 | 50.08599 | -1.94152 | 8250 ft | 166 kts | 198° |
| 2026-04-26 15:18 | 50.07507 | -1.94722 | 8251 ft | 166 kts | 198° |
| 2026-04-26 15:18 | 50.06424 | -1.95329 | 8249 ft | 165 kts | 206° |
| 2026-04-26 15:19 | 50.05441 | -1.96255 | 8247 ft | 165 kts | 212° |
| 2026-04-26 15:19 | 50.04475 | -1.97222 | 8248 ft | 165 kts | 212° |
| 2026-04-26 15:19 | 50.03472 | -1.98088 | 8249 ft | 165 kts | 204° |
| 2026-04-26 15:19 | 50.02415 | -1.98789 | 8249 ft | 165 kts | 203° |
| 2026-04-26 15:20 | 50.01359 | -1.99502 | 8249 ft | 165 kts | 204° |
| 2026-04-26 15:20 | 50.00325 | -2.00232 | 8243 ft | 165 kts | 208° |
| 2026-04-26 15:20 | 49.99465 | -2.01400 | 8243 ft | 166 kts | 231° |
| 2026-04-26 15:20 | 49.98762 | -2.02820 | 8244 ft | 165 kts | 231° |
| 2026-04-26 15:21 | 49.98055 | -2.04232 | 8244 ft | 165 kts | 231° |
| 2026-04-26 15:21 | 49.97348 | -2.05646 | 8244 ft | 166 kts | 231° |
| 2026-04-26 15:21 | 49.96640 | -2.07064 | 8243 ft | 166 kts | 231° |
| 2026-04-26 15:21 | 49.95931 | -2.08481 | 8244 ft | 166 kts | 231° |
| 2026-04-26 15:22 | 49.95221 | -2.09901 | 8242 ft | 166 kts | 231° |
| 2026-04-26 15:22 | 49.94512 | -2.11317 | 8244 ft | 166 kts | 231° |
| 2026-04-26 15:22 | 49.93800 | -2.12737 | 8243 ft | 166 kts | 231° |
| 2026-04-26 15:22 | 49.93100 | -2.14135 | 8241 ft | 166 kts | 231° |
| 2026-04-26 15:23 | 49.92388 | -2.15555 | 8239 ft | 167 kts | 231° |
| 2026-04-26 15:23 | 49.91676 | -2.16976 | 8241 ft | 167 kts | 231° |
| 2026-04-26 15:23 | 49.90962 | -2.18396 | 8242 ft | 167 kts | 231° |
| 2026-04-26 15:23 | 49.90250 | -2.19815 | 8240 ft | 166 kts | 231° |
| 2026-04-26 15:24 | 49.89537 | -2.21233 | 8241 ft | 167 kts | 231° |
| 2026-04-26 15:24 | 49.88824 | -2.22652 | 8242 ft | 167 kts | 232° |
| 2026-04-26 15:24 | 49.88118 | -2.24055 | 8240 ft | 167 kts | 231° |
| 2026-04-26 15:24 | 49.87402 | -2.25479 | 8240 ft | 167 kts | 232° |
| 2026-04-26 15:25 | 49.86687 | -2.26898 | 8239 ft | 167 kts | 231° |
| 2026-04-26 15:25 | 49.86212 | -2.27840 | 8238 ft | 167 kts | 232° |
| 2026-04-26 15:25 | 49.85257 | -2.29734 | 8238 ft | 166 kts | 231° |
| 2026-04-26 15:25 | 49.84543 | -2.31151 | 8238 ft | 167 kts | 232° |
| 2026-04-26 15:26 | 49.83829 | -2.32566 | 8239 ft | 167 kts | 232° |
| 2026-04-26 15:26 | 49.83116 | -2.33979 | 8238 ft | 167 kts | 232° |
| 2026-04-26 15:26 | 49.82411 | -2.35373 | 8240 ft | 167 kts | 232° |
| 2026-04-26 15:26 | 49.81697 | -2.36786 | 8238 ft | 167 kts | 232° |
| 2026-04-26 15:27 | 49.80980 | -2.38204 | 8238 ft | 167 kts | 232° |
| 2026-04-26 15:27 | 49.80265 | -2.39617 | 8239 ft | 166 kts | 232° |
| 2026-04-26 15:27 | 49.79549 | -2.41031 | 8236 ft | 166 kts | 232° |
| 2026-04-26 15:27 | 49.78834 | -2.42442 | 8240 ft | 166 kts | 232° |
| 2026-04-26 15:28 | 49.78120 | -2.43852 | 8235 ft | 166 kts | 232° |
| 2026-04-26 15:28 | 49.77405 | -2.45261 | 8238 ft | 166 kts | 232° |
| 2026-04-26 15:28 | 49.76699 | -2.46653 | 8238 ft | 166 kts | 232° |
| 2026-04-26 15:28 | 49.75982 | -2.48066 | 8236 ft | 167 kts | 232° |
| 2026-04-26 15:29 | 49.75265 | -2.49477 | 8239 ft | 167 kts | 232° |
| 2026-04-26 15:29 | 49.74545 | -2.50895 | 8174 ft | 170 kts | 232° |
| 2026-04-26 15:29 | 49.73087 | -2.53760 | 7821 ft | 167 kts | 232° |
| 2026-04-26 15:30 | 49.71662 | -2.56560 | 7471 ft | 166 kts | 232° |
| 2026-04-26 15:30 | 49.70947 | -2.57943 | 7301 ft | 167 kts | 228° |
| 2026-04-26 15:30 | 49.69993 | -2.58945 | 7135 ft | 168 kts | 202° |
| 2026-04-26 15:31 | 49.68849 | -2.59342 | 6963 ft | 169 kts | 191° |
| 2026-04-26 15:31 | 49.66536 | -2.60009 | 6629 ft | 169 kts | 191° |
| 2026-04-26 15:31 | 49.65374 | -2.60341 | 6446 ft | 169 kts | 191° |
| 2026-04-26 15:32 | 49.63840 | -2.60775 | 6212 ft | 169 kts | 191° |
| 2026-04-26 15:32 | 49.61915 | -2.61309 | 5917 ft | 169 kts | 191° |
| 2026-04-26 15:32 | 49.60756 | -2.61626 | 5736 ft | 169 kts | 191° |
| 2026-04-26 15:33 | 49.59601 | -2.61940 | 5565 ft | 168 kts | 191° |
| 2026-04-26 15:33 | 49.58445 | -2.62251 | 5393 ft | 168 kts | 191° |
| 2026-04-26 15:33 | 49.57292 | -2.62556 | 5207 ft | 168 kts | 192° |
| 2026-04-26 15:33 | 49.56137 | -2.62856 | 4955 ft | 167 kts | 191° |
| 2026-04-26 15:34 | 49.55011 | -2.63144 | 4700 ft | 165 kts | 191° |
| 2026-04-26 15:34 | 49.53887 | -2.63435 | 4439 ft | 163 kts | 191° |
| 2026-04-26 15:34 | 49.52787 | -2.63724 | 4071 ft | 151 kts | 191° |
| 2026-04-26 15:34 | 49.51811 | -2.63990 | 3681 ft | 135 kts | 191° |
| 2026-04-26 15:35 | 49.50919 | -2.64242 | 3276 ft | 127 kts | 191° |
| 2026-04-26 15:35 | 49.50059 | -2.64496 | 2894 ft | 128 kts | 191° |
| 2026-04-26 15:35 | 49.49168 | -2.64771 | 2519 ft | 132 kts | 191° |
| 2026-04-26 15:35 | 49.48270 | -2.65042 | 2190 ft | 131 kts | 188° |
| 2026-04-26 15:36 | 49.47415 | -2.65275 | 1838 ft | 122 kts | 187° |
| 2026-04-26 15:36 | 49.46623 | -2.65491 | 1578 ft | 110 kts | 186° |
| 2026-04-26 15:36 | 49.45907 | -2.65624 | 1499 ft | 100 kts | 180° |
| 2026-04-26 15:36 | 49.45170 | -2.65694 | 1435 ft | 108 kts | 179° |
| 2026-04-26 15:37 | 49.44384 | -2.65660 | 1259 ft | 110 kts | 173° |
| 2026-04-26 15:37 | 49.43699 | -2.65225 | 947 ft | 107 kts | 128° |
| 2026-04-26 15:37 | 49.43421 | -2.64284 | 692 ft | 89 kts | 97° |
| 2026-04-26 15:37 | 49.43403 | -2.63382 | 584 ft | 82 kts | 83° |
| 2026-04-26 15:38 | 49.43437 | -2.62496 | 480 ft | 83 kts | 85° |
| 2026-04-26 15:38 | 49.43458 | -2.61646 | 376 ft | 77 kts | 85° |
| 2026-04-26 15:38 | 49.43479 | -2.60857 | 316 ft | 63 kts | 84° |
| 2026-04-26 15:38 | 49.43494 | -2.60387 | 321 ft | 29 kts | 89° |
| 2026-04-26 15:39 | 49.43499 | -2.60132 | 324 ft | 19 kts | 85° |
| 2026-04-26 15:39 | 49.43503 | -2.59924 | 329 ft | 15 kts | 94° |
| 2026-04-26 15:39 | 49.43467 | -2.59863 | 330 ft | 11 kts | 173° |
| 2026-04-26 15:39 | 49.43436 | -2.59861 | 331 ft | 4 kts | 178° |
| 2026-04-26 15:40 | 49.43412 | -2.59859 | 331 ft | 0 kts | 177° |
| 2026-04-26 15:40 | 49.43396 | -2.59857 | 331 ft | 9 kts | 175° |
| 2026-04-26 15:40 | 49.43343 | -2.59900 | 329 ft | 10 kts | 269° |
| 2026-04-26 15:40 | 49.43278 | -2.59926 | 330 ft | 15 kts | 176° |
| 2026-04-26 15:41 | 49.43210 | -2.59950 | 327 ft | 8 kts | 276° |
| 2026-04-26 15:41 | 49.43206 | -2.60000 | 326 ft | 0 kts | 171° |